• Join FlightAware (Why Join?)
  • Login
  • US Flag 
07:48AM EST


 

Airport Tracker/Info


-or-


 

Live Flight TrackerFlight Track Log ✈ UAL4457 ✈ 29-Aug-2014 ✈ KLEX - KIAH

Flight Track Log - Related Links

Times and Time Zones

All times are in EDT time to prevent confusion due to time zone crossing. See the UAL4457 flight status page for this flight to view local times or setup timezone preferences in your user account.

Time Position Orientation Groundspeed Altitude Reporting Facility
EDT Latitude Longitude Course Direction KTS MPH feet Rate Location/Type
05:50PM 37.9625 -84.7264 240° Southwest 219 252 5,000  Level Indianapolis Center
05:52PM 37.8268 -85.1030 247° West  Level FlightAware Approximate
05:52PM 37.9314 -84.8094 245° Southwest 244 281 7,200  Level Indianapolis Center
05:53PM 37.7831 -85.2339 241° Southwest  Level FlightAware Approximate
05:53PM 37.8978 -84.8939 243° Southwest 260 299 9,400  Level Indianapolis Center
05:54PM 37.7281 -85.3577 241° Southwest  Level FlightAware Approximate
05:54PM 37.8617 -84.9856 244° Southwest 279 321 10,800  Level Indianapolis Center
05:55PM 37.9851 -84.7205 243° Southwest  Level FlightAware Approximate
05:55PM 37.8192 -85.0900 243° Southwest 317 365 11,800  Level Indianapolis Center
05:56PM 37.7694 -85.2175 244° Southwest 339 390 13,300 1,260 Climbing Indianapolis Center
05:57PM 37.7256 -85.3289 244° Southwest 345 397 14,500 1,140 Climbing Indianapolis Center
05:58PM 37.6803 -85.4400 243° Southwest 350 403 15,700 1,080 Climbing Indianapolis Center
05:59PM 37.6322 -85.5586 243° Southwest 354 407 16,800 960 Climbing Indianapolis Center
06:00PM 37.5867 -85.6714 243° Southwest 356 410 17,700 900 Climbing Indianapolis Center
06:01PM 37.5394 -85.7861 243° Southwest 359 413 18,700 840 Climbing Indianapolis Center
06:02PM 37.4944 -85.9000 244° Southwest 366 421 19,500 900 Climbing Indianapolis Center
06:03PM 37.4386 -86.0356 243° Southwest 369 425 20,600 960 Climbing Indianapolis Center
06:04PM 37.3906 -86.1531 243° Southwest 372 428 21,600 840 Climbing Indianapolis Center
06:05PM 37.3575 -86.2300 242° Southwest 373 429 22,200 840 Climbing Memphis Center
06:06PM 37.3014 -86.3658 243° Southwest 373 429 23,200 840 Climbing Memphis Center
06:07PM 37.2531 -86.4828 243° Southwest 373 429 24,000 780 Climbing Memphis Center
06:08PM 37.2050 -86.6003 243° Southwest 374 430 24,900 780 Climbing Memphis Center
06:09PM 37.1558 -86.7175 242° Southwest 375 432 25,700 720 Climbing Memphis Center
06:10PM 37.1072 -86.8369 243° Southwest 377 434 26,500 720 Climbing Memphis Center
06:11PM 37.0572 -86.9556 242° Southwest 380 437 27,300 960 Climbing Memphis Center
06:12PM 37.0000 -87.0928 242° Southwest 380 437 28,500 960 Climbing Memphis Center
06:13PM 36.9497 -87.2097 242° Southwest 380 437 29,400 960 Climbing Memphis Center
06:14PM 36.9003 -87.3275 242° Southwest 380 437 30,500 1,080 Climbing Memphis Center
06:15PM 36.8569 -87.4456 245° Southwest 379 436 31,700 1,080 Climbing Memphis Center
06:16PM 36.8150 -87.5642 246° West 375 432 32,800 1,080 Climbing Memphis Center
06:17PM 36.7731 -87.6831 246° West 374 430 34,000 540 Climbing Memphis Center
06:18PM 36.7217 -87.8267 246° West 383 441 34,000 180 Level Memphis Center
06:19PM 36.6742 -87.9597 246° West 406 467 34,400 600 Climbing Memphis Center
06:20PM 36.6244 -88.0894 245° Southwest 410 472 35,300 720 Climbing Memphis Center
06:21PM 36.5697 -88.2119 241° Southwest 410 472 36,000 300 Climbing Memphis Center
06:22PM 36.5119 -88.3383 240° Southwest 412 474 36,000  Level Memphis Center
06:23PM 36.4544 -88.4675 241° Southwest 423 487 36,000  Level Memphis Center
06:24PM 36.3950 -88.5975 240° Southwest 426 490 36,000  Level Memphis Center
06:25PM 36.3253 -88.7478 240° Southwest 423 487 36,000  Level Memphis Center
06:26PM 36.2689 -88.8706 240° Southwest 412 474 36,000  Level Memphis Center
06:27PM 36.2103 -88.9961 240° Southwest 412 474 36,000  Level Memphis Center
06:29PM 36.1519 -89.1239 241° Southwest 417 480 36,000  Level Memphis Center
06:30PM 36.0925 -89.2522 240° Southwest 420 483 36,000  Level Memphis Center
06:31PM 36.0344 -89.3803 241° Southwest 422 486 36,000  Level Memphis Center
06:32PM 35.9758 -89.5075 240° Southwest 422 486 36,000  Level Memphis Center
06:33PM 35.9175 -89.6319 240° Southwest 422 486 36,000  Level Memphis Center
06:34PM 35.8478 -89.7794 240° Southwest 420 483 36,000  Level Memphis Center
06:35PM 35.7900 -89.9025 240° Southwest 418 481 36,000  Level Memphis Center
06:36PM 35.7397 -90.0278 244° Southwest 411 473 36,000  Level Memphis Center
06:37PM 35.7017 -90.1636 251° West 412 474 36,000  Level Memphis Center
06:38PM 35.6631 -90.2936 250° West 413 475 36,000  Level Memphis Center
06:39PM 35.6181 -90.4531 251° West 413 475 36,000  Level Memphis Center
06:40PM 35.5850 -90.5881 253° West 413 475 36,000  Level Memphis Center
06:41PM 35.5506 -90.7197 252° West 412 474 36,000  Level Memphis Center
06:42PM 35.5189 -90.8522 254° West 409 471 36,000  Level Memphis Center
06:43PM 35.4889 -90.9853 255° West 409 471 36,000  Level Memphis Center
06:44PM 35.4586 -91.1475 257° West 409 471 36,000  Level Memphis Center
06:45PM 35.4414 -91.2872 261° West 411 473 36,000  Level Memphis Center
06:46PM 35.4314 -91.4144 265° West 411 473 36,000  Level Memphis Center
06:47PM 35.4208 -91.5514 265° West 410 472 36,000  Level Memphis Center
06:48PM 35.3739 -91.7047 249° West 404 465 36,000  Level Memphis Center
06:49PM 35.2828 -91.7906 218° Southwest 412 474 36,000  Level Memphis Center
06:50PM 35.1839 -91.8650 212° Southwest 415 478 36,000  Level Memphis Center
06:51PM 35.0828 -91.9397 211° Southwest 418 481 36,000  Level Memphis Center
06:53PM 34.8817 -92.0861 211° Southwest 418 481 36,000  Level Memphis Center
06:54PM 34.7611 -92.1686 209° Southwest 417 480 36,000  Level Memphis Center
06:55PM 34.6469 -92.1936 190° South 416 479 36,000  Level Memphis Center
06:56PM 34.5314 -92.2156 189° South 416 479 36,000  Level Memphis Center
06:58PM 34.4169 -92.2381 189° South 416 479 36,000  Level Memphis Center
06:59PM 34.3044 -92.2578 188° South 410 472 36,000  Level Memphis Center
07:00PM 34.1911 -92.2792 189° South 410 472 36,000  Level Memphis Center
07:01PM 34.0692 -92.3008 188° South 410 472 36,000  Level Memphis Center
07:02PM 33.9581 -92.3225 189° South 406 467 36,000  Level Memphis Center
07:03PM 33.8478 -92.3494 191° South 405 466 36,000  Level Memphis Center
07:04PM 33.7203 -92.4019 199° South 405 466 36,000  Level Memphis Center
07:05PM 33.6097 -92.4311 192° South 405 466 36,000  Level Memphis Center
07:06PM 33.4969 -92.4472 187° South 405 466 36,000  Level Memphis Center
07:07PM 33.3833 -92.4644 187° South 406 467 36,000  Level Memphis Center
07:08PM 33.2697 -92.4819 187° South 408 470 36,000  Level Memphis Center
07:09PM 33.1556 -92.4994 187° South 408 470 36,000  Level Memphis Center
07:10PM 33.0403 -92.5175 187° South 412 474 36,000  Level Memphis Center
07:11PM 32.8589 -92.5442 187° South 415 478 36,000  Level Fort Worth Center
07:13PM 32.7425 -92.5600 187° South 416 479 36,000  Level Fort Worth Center
07:14PM 32.6250 -92.5786 188° South 422 486 36,000  Level Fort Worth Center
07:15PM 32.4881 -92.5989 187° South 414 476 36,000  Level Fort Worth Center
07:16PM 32.3789 -92.6147 187° South 416 479 36,000  Level Fort Worth Center
07:17PM 32.2642 -92.6325 187° South 416 479 36,000  Level Fort Worth Center
07:18PM 32.1511 -92.6517 188° South 414 476 36,000  Level Fort Worth Center
07:19PM 32.0156 -92.6711 187° South 409 471 36,000  Level Fort Worth Center
07:20PM 31.9217 -92.7450 214° Southwest 418 481 36,000  Level Fort Worth Center
07:21PM 31.8458 -92.8447 228° Southwest 417 480 36,000  Level Fort Worth Center
07:22PM 31.7564 -92.9581 227° Southwest 413 475 36,000  Level Houston Center
07:23PM 31.6792 -93.0594 228° Southwest 414 476 36,000  Level Houston Center
07:24PM 31.5856 -93.1803 228° Southwest 415 478 36,000  Level Houston Center
07:25PM 31.5039 -93.2853 228° Southwest 417 480 36,000  Level Houston Center
07:26PM 31.4250 -93.3844 227° Southwest 417 480 36,000  Level Houston Center
07:27PM 31.3450 -93.4867 228° Southwest 424 488 36,000  Level Houston Center
07:28PM 31.2642 -93.5886 227° Southwest 423 487 36,000 -60 Level Houston Center
07:29PM 31.1736 -93.7042 228° Southwest 422 486 35,900 -1,020 Descending Houston Center
07:30PM 31.0944 -93.8047 227° Southwest 422 486 33,900 -2,280 Descending Houston Center
07:31PM 31.0050 -93.9169 227° Southwest 434 499 31,200 -2,400 Descending Houston Center
07:32PM 30.9286 -94.0131 227° Southwest 440 506 29,000 -2,160 Descending Houston Center
07:33PM 30.8472 -94.1139 227° Southwest 435 501 26,800 -2,220 Descending Houston Center
07:34PM 30.7597 -94.2239 227° Southwest 422 486 24,500 -2,160 Descending Houston Center
07:35PM 30.6767 -94.3267 227° Southwest 408 470 22,300 -2,340 Descending Houston Center
07:36PM 30.6386 -94.3769 229° Southwest 396 456 21,100 -2,160 Descending Houston Center
07:36PM 30.6033 -94.4181 225° Southwest 395 455 20,100 -2,040 Descending Houston Center
07:37PM 30.5619 -94.4719 228° Southwest 392 451 18,800 -2,520 Descending Houston Center
07:38PM 30.5161 -94.5292 227° Southwest 400 460 17,500 -2,460 Descending Houston Center
07:38PM 30.4786 -94.5872 233° Southwest 420 483 16,300 -2,160 Descending Houston Center
07:39PM 30.4067 -94.6911 231° Southwest 405 466 14,300 -1,860 Descending Houston Center
07:40PM 30.3739 -94.7356 229° Southwest 408 470 13,400 -2,220 Descending Houston Center
07:40PM 30.3419 -94.7817 231° Southwest 401 461 12,300 -2,280 Descending Houston Center
07:41PM 30.3033 -94.8303 227° Southwest 394 453 11,100 -1,920 Descending Houston Center
07:41PM 30.2728 -94.8728 230° Southwest 360 414 10,400 -720 Descending Houston Center
07:42PM 30.2394 -94.9175 229° Southwest 361 415 10,400 -240 Level Houston Center
07:42PM 30.2094 -94.9581 229° Southwest 346 398 10,200 -240 Descending Houston Center
07:43PM 30.1767 -95.0031 230° Southwest 355 409 10,200 -300 Level Houston Center
07:43PM 30.1500 -95.0406 231° Southwest 318 366 9,900 -1,200 Descending Houston Center
07:44PM 30.1217 -95.0992 241° Southwest 305 351 9,000 -1,620 Descending Houston Center
07:44PM 30.1186 -95.1314 264° West 289 333 8,300 -1,500 Descending Houston Center
07:45PM 30.1078 -95.1894 258° West 296 341 7,500 -1,380 Descending Houston Center
07:45PM 30.1003 -95.2303 258° West 289 333 6,800 -1,080 Descending Houston Center
07:46PM 30.0936 -95.2811 261° West 296 341 6,400 -780 Descending Houston Center
07:46PM 30.0922 -95.3231 268° West 290 334 6,000 -420 Descending Houston Center
07:47PM 30.0922 -95.3722 270° West 291 335 6,000 -600 Level Houston Center
07:47PM 30.0925 -95.4194 270° West 285 328 5,400 -1,380 Descending Houston Center
07:48PM 30.0928 -95.4625 270° West 285 328 4,600 -1,560 Descending Houston Center
07:48PM 30.0894 -95.5019 264° West 284 327 4,000 -1,080 Descending Houston Center
07:49PM 30.0669 -95.5556 244° Southwest 253 291 3,500 -660 Descending Houston Center
07:49PM 30.0492 -95.5672 210° Southwest 230 265 3,300 -540 Descending Houston Center
07:50PM 30.0086 -95.5703 184° South 229 264 3,000 -360 Descending Houston Center
07:50PM 29.9958 -95.5589 142° Southeast 210 242 3,000 -420 Level Houston Center
07:51PM 29.9925 -95.5086 94° East 222 255 2,600 -600 Descending Houston Center
07:51PM 29.9919 -95.4919 92° East 208 239 2,400 -900 Descending Houston Center
07:52PM 29.9922 -95.4556 89° East 189 217 1,700 -900 Descending Houston Center
07:52PM 29.9919 -95.4436 92° East 116 133 1,500 -720 Descending Houston Center
07:53PM 29.9925 -95.4050 89° East 120 138 900 -480 Descending Houston Center
07:54PM 29.9933 -95.3797 88° East 126 145 600 -300 Descending Houston Center
07:55PM 29.9939 -95.3317 89° East 125 144 400 -240 Descending Houston Center